Startpagina
METAR-TAF:

METAR-TAF

Vliegvelden :

Aéroport Marseille Provence

Marseille, Frankrijk

breedte: 43-27N, lengte: 005-14E, hoogte: 6 m

Actueel weer

Dit bericht is 30 minuten geleden gemaakt, om 08:00 UTC
Wind 5 kt uit het noordoosten
Temperatuur 10°C
Vochtigheid 66%
Druk 1026 hPa
Zicht 10 km of meer
geen wolken onder 1500 m en geen cumulonimbus

METAR: LFML 270800Z AUTO 05005KT CAVOK 10/04 Q1026 NOSIG

Tijdstip: 09:30 (08:30 UTC)

Verwachting

Dit bericht is 6 uur en het 30 minuten geleden gemaakt, om 02:00 UTC
Verwachting geldig van 27 om 03 UTC tot 28 om 09 UTC
Wind 5 kt uit het oostzuidoosten
Zicht 10 km of meer
geen wolken onder 1500 m en geen cumulonimbus

TAF: LFML 270200Z 2703/2809 11005KT CAVOK TX17/2713Z TN06/2705Z

Waarnemingen en weersverwachtingen van meer dan 4000 vliegvelden (METAR en TAF).

De beschikbare stations zijn de gele en rode punten op de kaart.

Ga met uw muis naar het station om de naam te zien.

Klik dan om waarnemingen en weersverwachtingen te zien.

kaart wijzigen: klik op de groene knoppen met een zwart kruis om in te zoomen, op de groene knop met een streepje om uit te zoomen of op de groene pijlen voor aangrenzende kaarten.


METAR-TAF: